createdAt,value
2022-11-26T00:00:48.545Z,67.16
2022-11-26T00:02:50.435Z,67.27
2022-11-26T00:04:53.786Z,67.16
2022-11-26T00:06:55.535Z,66.75
2022-11-26T00:08:58.729Z,67.05
2022-11-26T00:11:01.694Z,66.92
2022-11-26T00:13:03.507Z,66.94
2022-11-26T00:15:17.055Z,67.03
2022-11-26T00:17:21.144Z,66.65
2022-11-26T00:19:22.879Z,67.12
2022-11-26T00:21:26.454Z,67.02
2022-11-26T00:23:28.845Z,66.80
2022-11-26T00:25:39.870Z,67.03
2022-11-26T00:27:41.959Z,66.75
2022-11-26T00:29:43.681Z,66.21
2022-11-26T00:31:45.446Z,66.66
2022-11-26T00:33:47.718Z,66.72
2022-11-26T00:35:52.644Z,66.77
2022-11-26T00:37:56.823Z,66.75
2022-11-26T00:39:58.663Z,67.06
2022-11-26T00:42:00.423Z,67.06
2022-11-26T00:44:02.368Z,66.83
2022-11-26T00:46:04.293Z,66.89
2022-11-26T00:48:06.519Z,67.08
2022-11-26T00:50:15.200Z,66.60
2022-11-26T00:52:33.170Z,66.32
2022-11-26T00:54:35.198Z,67.25
2022-11-26T00:56:38.805Z,67.37
2022-11-26T00:58:40.750Z,67.07
2022-11-26T01:00:42.520Z,67.61
2022-11-26T01:02:44.708Z,67.82
2022-11-26T01:04:46.563Z,67.49
2022-11-26T01:06:48.441Z,67.42
2022-11-26T01:08:50.949Z,67.62
2022-11-26T01:10:52.795Z,67.27
2022-11-26T01:12:56.755Z,67.61
2022-11-26T01:14:58.495Z,67.93
2022-11-26T01:17:00.560Z,67.67
2022-11-26T01:19:03.064Z,67.90
2022-11-26T01:21:05.042Z,67.25
2022-11-26T01:23:10.364Z,67.60
2022-11-26T01:25:12.184Z,67.74
2022-11-26T01:27:14.546Z,67.43
2022-11-26T01:29:18.685Z,67.26
2022-11-26T01:31:24.785Z,67.74
2022-11-26T01:33:26.615Z,67.92
2022-11-26T01:35:29.159Z,67.56
2022-11-26T01:37:30.914Z,68.25
2022-11-26T01:39:32.720Z,68.11
2022-11-26T01:41:54.220Z,67.81
2022-11-26T01:43:58.139Z,68.03
2022-11-26T01:45:59.952Z,68.48
2022-11-26T01:48:02.114Z,68.46
2022-11-26T01:50:23.413Z,68.62
2022-11-26T01:52:25.958Z,68.18
2022-11-26T01:54:28.383Z,68.09
2022-11-26T01:56:37.676Z,68.84
2022-11-26T01:58:43.848Z,68.06
2022-11-26T02:00:48.537Z,68.11
2022-11-26T02:02:50.844Z,67.97
2022-11-26T02:05:00.641Z,68.18
2022-11-26T02:07:02.785Z,68.29
2022-11-26T02:09:08.159Z,68.15
2022-11-26T02:11:23.046Z,67.82
2022-11-26T02:13:26.600Z,68.23
2022-11-26T02:15:36.838Z,68.31
2022-11-26T02:17:44.405Z,68.18
2022-11-26T02:19:48.989Z,67.38
2022-11-26T02:22:01.155Z,67.87
2022-11-26T02:24:13.460Z,67.88
2022-11-26T02:26:22.759Z,67.57
2022-11-26T02:28:34.768Z,67.34
2022-11-26T02:30:39.579Z,67.53
2022-11-26T02:32:41.895Z,67.31
2022-11-26T02:34:58.179Z,67.65
2022-11-26T02:37:06.555Z,67.83
2022-11-26T02:39:19.604Z,67.35
2022-11-26T02:41:21.366Z,67.09
2022-11-26T02:43:26.950Z,67.43
2022-11-26T02:45:49.793Z,66.93
2022-11-26T02:48:17.416Z,66.69
2022-11-26T02:50:34.958Z,66.73
2022-11-26T02:52:47.679Z,67.30
2022-11-26T02:54:52.230Z,66.73
2022-11-26T02:56:58.093Z,66.76
2022-11-26T02:59:02.881Z,66.96
2022-11-26T03:01:13.790Z,67.24
2022-11-26T03:03:28.063Z,66.98
2022-11-26T03:05:34.825Z,67.08
2022-11-26T03:07:39.415Z,67.86
2022-11-26T03:09:46.831Z,67.51
2022-11-26T03:11:49.404Z,67.64
2022-11-26T03:13:51.637Z,67.16
2022-11-26T03:15:53.757Z,67.44
2022-11-26T03:17:56.034Z,67.14
2022-11-26T03:19:58.203Z,66.97
2022-11-26T03:22:02.029Z,67.37
2022-11-26T03:24:04.544Z,67.36
2022-11-26T03:26:09.017Z,67.41
2022-11-26T03:28:11.483Z,67.35
2022-11-26T03:30:14.260Z,67.16
2022-11-26T03:32:16.960Z,67.54
2022-11-26T03:34:19.150Z,67.70
2022-11-26T03:36:21.586Z,67.95
2022-11-26T03:38:23.904Z,68.26
2022-11-26T03:40:26.162Z,67.78
2022-11-26T03:42:28.589Z,67.76
2022-11-26T03:44:30.841Z,68.20
2022-11-26T03:46:33.032Z,68.02
2022-11-26T03:48:35.170Z,67.79
2022-11-26T03:50:38.250Z,67.62
2022-11-26T03:52:40.550Z,67.58
2022-11-26T03:54:42.737Z,68.03
2022-11-26T03:56:44.865Z,68.43
2022-11-26T03:58:46.985Z,68.09
2022-11-26T04:00:49.348Z,68.13
2022-11-26T04:02:51.516Z,68.83
2022-11-26T04:04:53.881Z,68.70
2022-11-26T04:06:56.205Z,68.54
2022-11-26T04:08:58.497Z,68.82
2022-11-26T04:11:00.885Z,68.75
2022-11-26T04:13:03.020Z,68.61
2022-11-26T04:15:05.998Z,69.02
2022-11-26T04:17:10.062Z,68.89
2022-11-26T04:19:12.640Z,68.77
2022-11-26T04:21:17.282Z,69.15
2022-11-26T04:23:20.122Z,69.04
2022-11-26T04:25:22.578Z,69.35
2022-11-26T04:27:24.748Z,68.96
2022-11-26T04:29:26.990Z,69.08
2022-11-26T04:31:29.468Z,69.33
2022-11-26T04:33:32.366Z,69.57
2022-11-26T04:35:34.498Z,68.86
2022-11-26T04:37:37.978Z,69.64
2022-11-26T04:39:40.544Z,69.65
2022-11-26T04:41:43.985Z,69.38
2022-11-26T04:43:46.282Z,69.77
2022-11-26T04:45:48.654Z,69.73
2022-11-26T04:47:51.957Z,69.21
2022-11-26T04:49:54.637Z,69.91
2022-11-26T04:51:57.462Z,69.31
2022-11-26T04:54:02.962Z,69.58
2022-11-26T04:56:06.281Z,69.34
2022-11-26T04:58:09.023Z,69.46
2022-11-26T05:00:14.920Z,69.02
2022-11-26T05:02:17.610Z,69.14
2022-11-26T05:04:20.622Z,69.45
2022-11-26T05:06:22.879Z,69.19
2022-11-26T05:08:25.109Z,68.72
2022-11-26T05:10:28.123Z,68.85
2022-11-26T05:12:30.220Z,68.99
2022-11-26T05:14:32.426Z,69.20
2022-11-26T05:16:34.752Z,69.11
2022-11-26T05:18:37.106Z,69.08
2022-11-26T05:20:39.252Z,68.74
2022-11-26T05:22:43.008Z,68.56
2022-11-26T05:24:45.207Z,69.13
2022-11-26T05:26:50.090Z,69.10
2022-11-26T05:28:54.540Z,68.98
2022-11-26T05:31:00.552Z,69.06
2022-11-26T05:33:02.685Z,68.85
2022-11-26T05:35:05.572Z,68.53
2022-11-26T05:37:07.800Z,69.07
2022-11-26T05:39:09.987Z,68.74
2022-11-26T05:41:12.080Z,69.25
2022-11-26T05:43:14.406Z,69.25
2022-11-26T05:45:16.843Z,68.89
2022-11-26T05:47:18.998Z,68.95
2022-11-26T05:49:21.119Z,69.35
2022-11-26T05:51:23.313Z,68.85
2022-11-26T05:53:25.837Z,69.03
2022-11-26T05:55:28.023Z,68.92
2022-11-26T05:57:30.229Z,69.20
2022-11-26T05:59:32.362Z,68.67
2022-11-26T06:01:34.643Z,69.09
2022-11-26T06:03:38.041Z,68.94
2022-11-26T06:05:40.331Z,68.95
2022-11-26T06:07:45.082Z,68.88
2022-11-26T06:09:47.587Z,68.78
2022-11-26T06:11:50.795Z,68.78
2022-11-26T06:13:52.931Z,68.50
2022-11-26T06:15:55.053Z,68.90
2022-11-26T06:17:59.022Z,68.80
2022-11-26T06:20:01.480Z,68.95
2022-11-26T06:22:03.997Z,68.87
2022-11-26T06:24:06.472Z,68.57
2022-11-26T06:26:11.785Z,68.60
2022-11-26T06:28:14.134Z,68.94
2022-11-26T06:30:16.351Z,69.15
2022-11-26T06:32:18.637Z,68.95
2022-11-26T06:34:20.783Z,69.22
2022-11-26T06:36:24.584Z,68.56
2022-11-26T06:38:30.121Z,68.81
2022-11-26T06:40:32.999Z,68.78
2022-11-26T06:42:35.341Z,68.27
2022-11-26T06:44:38.749Z,68.75
2022-11-26T06:46:42.542Z,68.67
2022-11-26T06:48:45.779Z,69.08
2022-11-26T06:50:48.837Z,68.65
2022-11-26T06:52:53.000Z,69.09
2022-11-26T06:54:59.681Z,69.32
2022-11-26T06:57:04.400Z,68.99
2022-11-26T06:59:06.949Z,68.92
2022-11-26T07:01:15.521Z,69.13
2022-11-26T07:03:23.602Z,68.34
2022-11-26T07:05:29.203Z,68.43
2022-11-26T07:07:34.506Z,68.93
2022-11-26T07:09:40.422Z,68.96
2022-11-26T07:11:43.222Z,68.71
2022-11-26T07:13:45.660Z,68.70
2022-11-26T07:15:48.858Z,68.84
2022-11-26T07:17:58.671Z,68.76
2022-11-26T07:20:02.375Z,68.57
2022-11-26T07:22:05.938Z,68.89
2022-11-26T07:24:10.209Z,68.74
2022-11-26T07:26:13.849Z,68.80
2022-11-26T07:28:19.061Z,68.35
2022-11-26T07:30:25.308Z,68.73
2022-11-26T07:32:30.204Z,68.42
2022-11-26T07:34:33.131Z,68.20
2022-11-26T07:36:35.409Z,68.91
2022-11-26T07:38:41.472Z,68.59
2022-11-26T07:40:49.142Z,68.64
2022-11-26T07:42:53.446Z,69.38
2022-11-26T07:44:56.489Z,69.13
2022-11-26T07:46:59.415Z,69.33
2022-11-26T07:49:01.801Z,69.53
2022-11-26T07:51:04.930Z,69.22
2022-11-26T07:53:07.601Z,69.33
2022-11-26T07:55:12.786Z,69.74
2022-11-26T07:57:15.116Z,69.46
2022-11-26T07:59:22.162Z,69.78
2022-11-26T08:01:33.399Z,69.62
2022-11-26T08:03:46.341Z,70.08
2022-11-26T08:05:54.351Z,69.93
2022-11-26T08:07:57.225Z,70.22
2022-11-26T08:09:59.530Z,69.84
2022-11-26T08:12:01.961Z,70.26
2022-11-26T08:14:07.888Z,69.67
2022-11-26T08:16:10.469Z,69.70
2022-11-26T08:18:13.119Z,69.96
2022-11-26T08:20:15.292Z,69.89
2022-11-26T08:22:17.577Z,69.66
2022-11-26T08:24:20.580Z,69.94
2022-11-26T08:26:31.012Z,69.65
2022-11-26T08:28:36.257Z,69.86
2022-11-26T08:30:37.891Z,70.05
2022-11-26T08:32:40.292Z,69.78
2022-11-26T08:34:44.270Z,69.83
2022-11-26T08:36:46.604Z,69.73
2022-11-26T08:38:48.825Z,70.11
2022-11-26T08:40:51.622Z,70.04
2022-11-26T08:42:53.808Z,69.45
2022-11-26T08:44:55.982Z,69.31
2022-11-26T08:46:58.197Z,68.97
2022-11-26T08:49:00.351Z,69.27
2022-11-26T08:51:05.166Z,69.07
2022-11-26T08:53:07.394Z,68.62
2022-11-26T08:55:10.019Z,68.75
2022-11-26T08:57:12.284Z,69.09
2022-11-26T08:59:14.742Z,69.49
2022-11-26T09:01:19.721Z,69.10
2022-11-26T09:03:22.228Z,69.36
2022-11-26T09:05:24.597Z,69.02
2022-11-26T09:07:28.270Z,69.42
2022-11-26T09:09:30.517Z,69.93
2022-11-26T09:11:35.497Z,70.36
2022-11-26T09:13:38.000Z,70.33
2022-11-26T09:15:40.121Z,70.01
2022-11-26T09:17:42.261Z,70.39
2022-11-26T09:19:44.558Z,70.42
2022-11-26T09:21:47.635Z,70.55
2022-11-26T09:23:49.965Z,70.61
2022-11-26T09:25:52.218Z,70.91
2022-11-26T09:27:54.771Z,70.68
2022-11-26T09:29:57.207Z,70.47
2022-11-26T09:32:22.680Z,70.83
2022-11-26T09:34:23.922Z,71.31
2022-11-26T09:36:27.062Z,71.20
2022-11-26T09:38:29.263Z,71.20
2022-11-26T09:40:45.908Z,71.64
2022-11-26T09:42:53.259Z,71.45
2022-11-26T09:45:01.679Z,71.75
2022-11-26T09:47:13.290Z,71.40
2022-11-26T09:49:18.019Z,71.84
2022-11-26T09:51:20.854Z,71.60
2022-11-26T09:53:27.908Z,71.59
2022-11-26T09:55:32.117Z,71.68
2022-11-26T09:57:43.831Z,71.74
2022-11-26T09:59:50.924Z,71.49
2022-11-26T10:01:52.592Z,71.32
2022-11-26T10:04:16.871Z,71.09
2022-11-26T10:06:56.012Z,71.29
2022-11-26T10:09:14.814Z,71.55
2022-11-26T10:11:34.975Z,71.66
2022-11-26T10:13:41.319Z,71.62
2022-11-26T10:15:50.760Z,71.67
2022-11-26T10:17:54.897Z,71.33
2022-11-26T10:20:01.554Z,71.61
2022-11-26T10:22:21.485Z,71.41
2022-11-26T10:24:29.884Z,71.76
2022-11-26T10:26:41.013Z,71.31
2022-11-26T10:28:46.246Z,71.57
2022-11-26T10:30:57.233Z,71.29
2022-11-26T10:33:02.751Z,70.90
2022-11-26T10:35:06.401Z,70.88
2022-11-26T10:37:08.889Z,71.03
2022-11-26T10:39:16.455Z,70.30
2022-11-26T10:41:19.436Z,69.62
2022-11-26T10:43:24.837Z,70.15
2022-11-26T10:45:38.136Z,69.45
2022-11-26T10:47:40.337Z,69.90
2022-11-26T10:49:42.782Z,69.51
2022-11-26T10:51:49.000Z,69.22
2022-11-26T10:53:56.426Z,68.86
2022-11-26T10:56:02.189Z,68.86
2022-11-26T10:58:13.296Z,69.04
2022-11-26T11:00:31.056Z,68.92
2022-11-26T11:02:39.369Z,69.14
2022-11-26T11:04:46.308Z,68.86
2022-11-26T11:06:48.704Z,69.27
2022-11-26T11:08:53.048Z,69.49
2022-11-26T11:10:58.138Z,69.40
2022-11-26T11:13:03.711Z,69.01
2022-11-26T11:15:17.562Z,69.86
2022-11-26T11:17:25.931Z,69.53
2022-11-26T11:19:28.376Z,69.36
2022-11-26T11:21:37.759Z,69.48
2022-11-26T11:24:07.158Z,69.33
2022-11-26T11:26:07.884Z,69.22
2022-11-26T11:28:12.838Z,69.07
2022-11-26T11:30:21.438Z,68.71
2022-11-26T11:32:29.985Z,68.26
2022-11-26T11:34:35.711Z,67.94
2022-11-26T11:36:37.936Z,67.84
2022-11-26T11:38:47.782Z,67.63
2022-11-26T11:40:50.660Z,67.68
2022-11-26T11:42:59.940Z,67.22
2022-11-26T11:45:04.559Z,67.56
2022-11-26T11:47:24.865Z,67.58
2022-11-26T11:49:35.294Z,66.88
2022-11-26T11:52:02.704Z,66.28
2022-11-26T11:54:13.701Z,66.10
2022-11-26T11:56:26.675Z,66.06
2022-11-26T11:58:48.980Z,65.85
2022-11-26T12:01:03.631Z,65.92
2022-11-26T12:03:17.235Z,65.83
2022-11-26T12:05:34.061Z,65.72
2022-11-26T12:07:42.233Z,65.60
2022-11-26T12:09:58.436Z,65.36
2022-11-26T12:12:16.164Z,65.20
2022-11-26T12:14:30.201Z,64.74
2022-11-26T12:16:36.743Z,64.78
2022-11-26T12:18:45.210Z,64.46
2022-11-26T12:20:52.710Z,64.48
2022-11-26T12:23:12.986Z,64.30
2022-11-26T12:25:37.347Z,63.95
2022-11-26T12:27:47.521Z,63.51
2022-11-26T12:29:58.280Z,63.80
2022-11-26T12:32:05.455Z,63.51
2022-11-26T12:34:15.811Z,63.19
2022-11-26T12:36:26.856Z,63.15
2022-11-26T12:38:37.166Z,63.26
2022-11-26T12:40:46.228Z,63.18
2022-11-26T12:42:58.126Z,62.92
2022-11-26T12:45:17.856Z,62.77
2022-11-26T12:47:37.180Z,62.81
2022-11-26T12:49:55.651Z,62.19
2022-11-26T12:52:17.476Z,61.86
2022-11-26T12:54:26.957Z,61.68
2022-11-26T12:56:41.766Z,62.00
2022-11-26T12:58:59.511Z,61.64
2022-11-26T13:01:01.520Z,61.66
2022-11-26T13:03:06.577Z,62.07
2022-11-26T13:05:12.272Z,61.80
2022-11-26T13:07:35.984Z,61.78
2022-11-26T13:09:56.017Z,61.56
2022-11-26T13:12:10.033Z,61.54
2022-11-26T13:14:32.270Z,61.42
2022-11-26T13:16:40.240Z,61.34
2022-11-26T13:18:49.807Z,61.33
2022-11-26T13:21:07.223Z,61.12
2022-11-26T13:23:18.706Z,61.11
2022-11-26T13:25:24.261Z,61.19
2022-11-26T13:27:37.113Z,60.89
2022-11-26T13:29:52.703Z,61.11
2022-11-26T13:32:14.693Z,61.42
2022-11-26T13:34:33.530Z,61.28
2022-11-26T13:36:54.587Z,61.20
2022-11-26T13:39:13.781Z,61.54
2022-11-26T13:41:28.155Z,61.57
2022-11-26T13:43:42.902Z,61.47
2022-11-26T13:45:55.148Z,61.94
2022-11-26T13:48:12.530Z,62.12
2022-11-26T13:50:18.364Z,61.92
2022-11-26T13:52:28.657Z,62.17
2022-11-26T13:54:39.117Z,62.01
2022-11-26T13:56:44.216Z,62.01
2022-11-26T13:58:52.637Z,61.95
2022-11-26T14:00:54.756Z,62.02
2022-11-26T14:02:57.524Z,61.92
2022-11-26T14:05:02.171Z,62.06
2022-11-26T14:07:04.741Z,62.32
2022-11-26T14:09:07.176Z,62.75
2022-11-26T14:11:10.633Z,62.90
2022-11-26T14:13:14.230Z,62.99
2022-11-26T14:15:35.555Z,63.54
2022-11-26T14:17:56.835Z,63.80
2022-11-26T14:19:59.959Z,64.16
2022-11-26T14:22:03.947Z,64.15
2022-11-26T14:24:06.373Z,64.01
2022-11-26T14:26:14.416Z,63.86
2022-11-26T14:28:16.534Z,63.93
2022-11-26T14:30:22.773Z,64.02
2022-11-26T14:32:27.021Z,63.99
2022-11-26T14:34:38.937Z,64.00
2022-11-26T14:36:53.915Z,64.23
2022-11-26T14:39:08.079Z,64.20
2022-11-26T14:41:10.101Z,64.03
2022-11-26T14:43:20.272Z,63.92
2022-11-26T14:45:24.513Z,64.48
2022-11-26T14:47:27.328Z,64.43
2022-11-26T14:49:39.021Z,64.10
2022-11-26T14:51:45.586Z,64.13
2022-11-26T14:53:50.022Z,64.19
2022-11-26T14:55:53.281Z,64.02
2022-11-26T14:57:59.501Z,63.72
2022-11-26T15:00:07.853Z,63.95
2022-11-26T15:02:24.618Z,63.92
2022-11-26T15:04:30.541Z,63.86
2022-11-26T15:06:38.698Z,63.41
2022-11-26T15:08:40.908Z,63.51
2022-11-26T15:10:52.585Z,63.74
2022-11-26T15:13:00.301Z,63.94
2022-11-26T15:15:04.634Z,63.89
2022-11-26T15:17:07.951Z,64.51
2022-11-26T15:19:15.152Z,64.42
2022-11-26T15:21:22.419Z,64.07
2022-11-26T15:23:32.339Z,64.08
2022-11-26T15:25:37.606Z,64.50
2022-11-26T15:27:48.599Z,64.99
2022-11-26T15:29:50.678Z,64.98
2022-11-26T15:31:52.703Z,65.13
2022-11-26T15:33:54.846Z,65.28
2022-11-26T15:35:57.611Z,65.80
2022-11-26T15:37:59.967Z,65.33
2022-11-26T15:40:21.757Z,66.02
2022-11-26T15:42:32.539Z,65.85
2022-11-26T15:44:42.025Z,65.86
2022-11-26T15:46:50.041Z,66.32
2022-11-26T15:48:55.290Z,66.36
2022-11-26T15:51:00.879Z,66.13
2022-11-26T15:53:07.974Z,66.61
2022-11-26T15:55:22.801Z,67.26
2022-11-26T15:57:28.422Z,67.06
2022-11-26T15:59:40.084Z,67.79
2022-11-26T16:01:46.761Z,67.92
2022-11-26T16:03:51.623Z,67.86
2022-11-26T16:05:57.234Z,67.74
2022-11-26T16:08:05.376Z,67.88
2022-11-26T16:10:16.209Z,67.72
2022-11-26T16:12:35.197Z,67.57
2022-11-26T16:14:39.966Z,67.50
2022-11-26T16:16:42.625Z,67.22
2022-11-26T16:18:54.320Z,67.21
2022-11-26T16:21:07.380Z,67.20
2022-11-26T16:23:20.862Z,67.46
2022-11-26T16:25:24.747Z,67.60
2022-11-26T16:27:28.592Z,67.81
2022-11-26T16:29:31.812Z,67.73
2022-11-26T16:31:34.119Z,67.78
2022-11-26T16:33:36.331Z,68.40
2022-11-26T16:35:46.960Z,68.19
2022-11-26T16:37:49.320Z,68.55
2022-11-26T16:39:54.500Z,68.36
2022-11-26T16:41:56.751Z,68.18
2022-11-26T16:43:59.204Z,68.46
2022-11-26T16:46:01.339Z,68.33
2022-11-26T16:48:03.558Z,68.30
2022-11-26T16:50:13.345Z,68.54
2022-11-26T16:52:19.203Z,68.11
2022-11-26T16:54:21.403Z,68.66
2022-11-26T16:56:27.445Z,68.21
2022-11-26T16:58:34.941Z,68.02
2022-11-26T17:00:36.981Z,68.48
2022-11-26T17:02:39.156Z,68.15
2022-11-26T17:04:41.521Z,68.03
2022-11-26T17:06:43.782Z,67.47
2022-11-26T17:08:49.833Z,67.75
2022-11-26T17:10:52.622Z,68.41
2022-11-26T17:12:55.031Z,67.93
2022-11-26T17:14:57.148Z,68.27
2022-11-26T17:17:02.788Z,68.30
2022-11-26T17:19:05.129Z,67.99
2022-11-26T17:21:07.565Z,68.26
2022-11-26T17:23:09.958Z,68.19
2022-11-26T17:25:13.121Z,68.08
2022-11-26T17:27:17.468Z,68.01
2022-11-26T17:29:19.775Z,68.46
2022-11-26T17:31:22.203Z,68.58
2022-11-26T17:33:24.862Z,68.35
2022-11-26T17:35:27.138Z,68.50
2022-11-26T17:37:30.902Z,68.58
2022-11-26T17:39:33.190Z,68.39
2022-11-26T17:41:35.486Z,68.13
2022-11-26T17:43:38.544Z,68.63
2022-11-26T17:45:42.733Z,68.10
2022-11-26T17:47:45.560Z,68.61
2022-11-26T17:49:48.496Z,68.83
2022-11-26T17:51:50.703Z,69.16
2022-11-26T17:53:53.287Z,68.69
2022-11-26T17:55:55.530Z,68.76
2022-11-26T17:57:58.675Z,69.31
2022-11-26T18:00:00.696Z,69.56
2022-11-26T18:02:03.718Z,69.73
2022-11-26T18:04:06.109Z,69.86
2022-11-26T18:06:14.830Z,70.07
2022-11-26T18:08:16.945Z,70.17
2022-11-26T18:10:21.586Z,71.29
2022-11-26T18:12:25.911Z,71.23
2022-11-26T18:14:28.885Z,70.83
2022-11-26T18:16:33.853Z,71.37
2022-11-26T18:18:36.235Z,71.24
2022-11-26T18:20:38.399Z,71.26
2022-11-26T18:22:40.787Z,71.63
2022-11-26T18:24:50.969Z,71.83
2022-11-26T18:26:57.110Z,71.69
2022-11-26T18:29:02.060Z,72.17
2022-11-26T18:31:04.339Z,72.00
2022-11-26T18:33:06.522Z,71.82
2022-11-26T18:35:10.241Z,72.29
2022-11-26T18:37:15.379Z,72.42
2022-11-26T18:39:17.990Z,72.50
2022-11-26T18:41:20.522Z,72.20
2022-11-26T18:43:22.793Z,72.02
2022-11-26T18:45:25.243Z,72.42
2022-11-26T18:47:27.618Z,72.58
2022-11-26T18:49:29.679Z,72.37
2022-11-26T18:51:31.921Z,72.28
2022-11-26T18:53:34.734Z,71.57
2022-11-26T18:55:40.064Z,71.77
2022-11-26T18:57:42.162Z,71.75
2022-11-26T18:59:45.061Z,71.91
2022-11-26T19:01:47.961Z,71.86
2022-11-26T19:03:50.823Z,71.70
2022-11-26T19:05:54.221Z,71.57
2022-11-26T19:07:56.374Z,71.81
2022-11-26T19:10:00.281Z,71.85
2022-11-26T19:12:02.599Z,71.81
2022-11-26T19:14:04.977Z,71.80
2022-11-26T19:16:15.858Z,71.96
2022-11-26T19:18:18.681Z,71.80
2022-11-26T19:20:21.115Z,72.05
2022-11-26T19:22:23.465Z,71.68
2022-11-26T19:24:25.831Z,71.87
2022-11-26T19:26:28.179Z,71.72
2022-11-26T19:28:30.389Z,71.39
2022-11-26T19:30:33.121Z,71.42
2022-11-26T19:32:35.702Z,72.03
2022-11-26T19:34:39.464Z,71.75
2022-11-26T19:36:42.536Z,72.27
2022-11-26T19:38:45.906Z,71.82
2022-11-26T19:40:48.402Z,72.10
2022-11-26T19:42:50.531Z,72.21
2022-11-26T19:44:52.804Z,72.21
2022-11-26T19:46:54.923Z,72.15
2022-11-26T19:48:57.476Z,71.72
2022-11-26T19:51:00.290Z,71.98
2022-11-26T19:53:02.463Z,72.19
2022-11-26T19:55:05.102Z,72.27
2022-11-26T19:57:07.446Z,72.29
2022-11-26T19:59:09.682Z,72.20
2022-11-26T20:01:14.718Z,72.00
2022-11-26T20:03:17.218Z,71.49
2022-11-26T20:05:19.577Z,71.42
2022-11-26T20:07:22.003Z,71.48
2022-11-26T20:09:24.127Z,71.42
2022-11-26T20:11:27.077Z,71.69
2022-11-26T20:13:29.287Z,71.51
2022-11-26T20:15:33.569Z,71.61
2022-11-26T20:17:35.698Z,71.37
2022-11-26T20:19:38.282Z,71.04
2022-11-26T20:21:41.047Z,70.96
2022-11-26T20:23:43.321Z,70.59
2022-11-26T20:25:45.842Z,71.44
2022-11-26T20:27:48.220Z,71.24
2022-11-26T20:29:50.511Z,71.44
2022-11-26T20:31:54.302Z,71.38
2022-11-26T20:33:56.742Z,71.27
2022-11-26T20:35:59.009Z,71.47
2022-11-26T20:38:01.093Z,71.42
2022-11-26T20:40:03.393Z,71.34
2022-11-26T20:42:05.740Z,71.52
2022-11-26T20:44:10.188Z,71.33
2022-11-26T20:46:14.335Z,71.26
2022-11-26T20:48:16.542Z,71.04
2022-11-26T20:50:18.881Z,70.95
2022-11-26T20:52:21.742Z,70.99
2022-11-26T20:54:24.025Z,71.12
2022-11-26T20:56:26.258Z,70.81
2022-11-26T20:58:28.996Z,71.04
2022-11-26T21:00:31.025Z,71.38
2022-11-26T21:02:33.720Z,70.77
2022-11-26T21:04:35.719Z,70.64
2022-11-26T21:06:37.701Z,70.36
2022-11-26T21:08:40.391Z,70.61
2022-11-26T21:10:42.721Z,70.21
2022-11-26T21:12:44.603Z,70.01
2022-11-26T21:14:46.566Z,69.68
2022-11-26T21:16:49.157Z,69.75
2022-11-26T21:18:54.347Z,69.62
2022-11-26T21:20:56.577Z,69.78
2022-11-26T21:22:58.598Z,70.67
2022-11-26T21:25:00.760Z,70.23
2022-11-26T21:27:02.938Z,70.13
2022-11-26T21:29:04.952Z,70.14
2022-11-26T21:31:11.481Z,70.09
2022-11-26T21:33:13.777Z,70.17
2022-11-26T21:35:16.083Z,69.90
2022-11-26T21:37:18.980Z,69.37
2022-11-26T21:39:20.918Z,69.60
2022-11-26T21:41:23.952Z,69.54
2022-11-26T21:43:25.849Z,69.49
2022-11-26T21:45:27.987Z,69.57
2022-11-26T21:47:29.885Z,69.89
2022-11-26T21:49:32.131Z,69.48
2022-11-26T21:51:34.202Z,69.16
2022-11-26T21:53:36.441Z,69.57
2022-11-26T21:55:38.687Z,69.88
2022-11-26T21:57:40.952Z,69.85
2022-11-26T21:59:42.935Z,69.82
2022-11-26T22:01:46.761Z,70.36
2022-11-26T22:03:51.066Z,70.10
2022-11-26T22:05:53.087Z,70.03
2022-11-26T22:07:55.247Z,69.85
2022-11-26T22:09:57.142Z,70.24
2022-11-26T22:11:59.089Z,70.75
2022-11-26T22:14:00.979Z,70.71
2022-11-26T22:16:04.376Z,70.23
2022-11-26T22:18:06.332Z,70.10
2022-11-26T22:20:09.014Z,70.24
2022-11-26T22:22:10.864Z,70.17
2022-11-26T22:24:17.010Z,70.31
2022-11-26T22:26:20.193Z,69.92
2022-11-26T22:28:24.515Z,70.09
2022-11-26T22:30:30.435Z,70.40
2022-11-26T22:32:32.355Z,70.71
2022-11-26T22:34:34.779Z,70.54
2022-11-26T22:36:37.762Z,70.38
2022-11-26T22:38:41.091Z,70.31
2022-11-26T22:40:42.991Z,70.52
2022-11-26T22:42:44.936Z,70.72
2022-11-26T22:44:46.829Z,70.95
2022-11-26T22:46:48.706Z,71.34
2022-11-26T22:48:54.682Z,71.16
2022-11-26T22:50:56.605Z,71.90
2022-11-26T22:52:58.686Z,71.68
2022-11-26T22:55:00.541Z,71.97
2022-11-26T22:57:02.657Z,72.68
2022-11-26T22:59:06.260Z,72.99
2022-11-26T23:01:09.333Z,73.60
2022-11-26T23:03:11.383Z,74.58
2022-11-26T23:05:13.509Z,75.44
2022-11-26T23:07:15.487Z,75.43
2022-11-26T23:09:17.585Z,76.25
2022-11-26T23:11:22.025Z,75.71
2022-11-26T23:13:24.100Z,75.97
2022-11-26T23:15:25.855Z,76.95
2022-11-26T23:17:27.673Z,77.54
2022-11-26T23:19:29.561Z,77.74
2022-11-26T23:21:34.770Z,78.06
2022-11-26T23:23:38.258Z,78.37
2022-11-26T23:25:41.165Z,78.64
2022-11-26T23:27:42.960Z,79.18
2022-11-26T23:29:44.771Z,79.30
2022-11-26T23:31:46.620Z,79.21
2022-11-26T23:33:49.365Z,79.25
2022-11-26T23:35:51.232Z,79.29
2022-11-26T23:37:52.999Z,79.62
2022-11-26T23:39:54.805Z,79.57
2022-11-26T23:41:56.669Z,79.57
2022-11-26T23:43:58.534Z,79.87
2022-11-26T23:46:03.875Z,79.60
2022-11-26T23:48:06.494Z,79.56
2022-11-26T23:50:08.824Z,79.63
2022-11-26T23:52:11.434Z,80.35
2022-11-26T23:54:13.226Z,80.08
2022-11-26T23:56:26.148Z,80.57
2022-11-26T23:58:27.994Z,81.07
